Time;durP1;ratioP1;P1;durP2;ratioP2;P2;SDS_P1;SDS_P2;PMS_P1;PMS_P2;Temp;Humidity;BMP_temperature;BMP_pressure;BME280_temperature;BME280_humidity;BME280_pressure;Samples;Min_cycle;Max_cycle;Signal;HPM_P1;HPM_P2
2022/05/23 00:01:33;;;;;;;2.80;0.80;;;22.50;46.00;21.40;100568.00;;;;5048795;28;20048;-71
2022/05/23 00:04:19;;;;;;;2.58;0.60;;;22.50;46.00;21.40;100568.00;;;;5052339;28;20042;-71
2022/05/23 00:07:30;;;;;;;2.65;0.82;;;22.50;46.10;21.40;100560.00;;;;5043239;28;20482;-71
2022/05/23 00:10:18;;;;;;;2.22;0.70;;;22.50;46.10;21.40;100553.00;;;;5027643;28;20116;-71
2022/05/23 00:13:04;;;;;;;1.38;0.70;;;22.50;46.10;21.40;100547.00;;;;5057514;28;20075;-71
2022/05/23 00:15:50;;;;;;;2.78;0.60;;;22.50;46.10;21.40;100544.00;;;;5043025;28;20033;-71
2022/05/23 00:18:36;;;;;;;2.03;0.65;;;22.50;46.10;21.40;100541.00;;;;5049727;28;20625;-71
2022/05/23 00:21:22;;;;;;;2.47;0.77;;;22.50;46.10;21.40;100543.00;;;;5045567;28;20056;-71
2022/05/23 00:24:09;;;;;;;2.35;0.75;;;22.50;46.10;21.40;100546.00;;;;5042180;28;20525;-71
2022/05/23 00:26:56;;;;;;;0.95;0.82;;;22.50;46.20;21.40;100536.00;;;;5032520;28;20045;-71
2022/05/23 00:29:42;;;;;;;1.45;0.88;;;22.50;46.20;21.40;100544.00;;;;5065782;28;20154;-71
2022/05/23 00:35:32;;;;;;;1.40;0.70;;;22.50;46.20;21.40;100536.00;;;;5047479;28;20080;-71
2022/05/23 00:38:18;;;;;;;2.13;0.77;;;22.50;46.20;21.40;100537.00;;;;5031521;28;20110;-70
2022/05/23 00:44:38;;;;;;;1.35;0.85;;;22.50;46.30;21.40;100524.00;;;;5041776;28;20060;-71
2022/05/23 00:47:26;;;;;;;1.35;0.68;;;22.50;46.20;21.40;100517.00;;;;5042089;28;20062;-71
2022/05/23 00:50:14;;;;;;;;;;;22.50;46.20;21.40;100505.00;;;;5041706;28;20077;-71
2022/05/23 00:53:00;;;;;;;2.10;0.80;;;22.50;46.30;21.40;100490.00;;;;5058797;28;19919;-71
2022/05/23 00:55:47;;;;;;;1.73;0.75;;;22.50;46.10;21.40;100490.00;;;;5041924;28;20132;-71
2022/05/23 00:58:39;;;;;;;1.08;0.40;;;22.50;46.10;21.40;100485.00;;;;5043628;28;20044;-71
2022/05/23 01:01:27;;;;;;;2.00;0.60;;;22.50;46.20;21.40;100483.00;;;;5052653;28;20038;-71
2022/05/23 01:04:13;;;;;;;1.20;0.55;;;22.50;46.10;21.40;100486.00;;;;5044522;28;20562;-71
2022/05/23 01:06:59;;;;;;;1.83;0.77;;;22.50;46.20;21.40;100479.00;;;;5042247;28;20045;-71
2022/05/23 01:09:45;;;;;;;1.23;0.52;;;22.50;46.20;21.40;100481.00;;;;5043414;28;20033;-71
2022/05/23 01:12:31;;;;;;;1.35;0.60;;;22.50;46.20;21.40;100473.00;;;;5054207;28;20044;-71
2022/05/23 01:15:26;;;;;;;1.50;0.55;;;22.50;46.20;21.40;100457.00;;;;5050119;28;20045;-71
2022/05/23 01:18:12;;;;;;;2.13;0.85;;;22.50;46.20;21.40;100457.00;;;;5047080;28;20415;-71
2022/05/23 01:21:00;;;;;;;1.75;0.65;;;22.50;46.20;21.40;100464.00;;;;5027389;28;20037;-71
2022/05/23 01:24:24;;;;;;;2.88;0.65;;;22.50;46.20;21.40;100459.00;;;;5043421;28;20059;-71
2022/05/23 01:27:10;;;;;;;2.05;0.77;;;22.50;46.20;21.40;100449.00;;;;5026032;28;20185;-71
2022/05/23 01:29:56;;;;;;;1.95;0.80;;;22.50;46.10;21.40;100439.00;;;;5052909;28;20033;-71
2022/05/23 01:32:42;;;;;;;1.65;0.68;;;22.50;46.20;21.40;100447.00;;;;5055665;28;20040;-71
2022/05/23 01:35:29;;;;;;;1.23;0.75;;;22.50;46.20;21.40;100434.00;;;;5051611;28;20048;-71
2022/05/23 01:38:15;;;;;;;2.65;0.80;;;22.50;46.20;21.40;100432.00;;;;5053123;28;20037;-71
2022/05/23 01:41:01;;;;;;;1.17;0.70;;;22.50;46.20;21.40;100432.00;;;;5042450;28;20041;-71
2022/05/23 01:43:47;;;;;;;1.15;0.77;;;22.50;46.10;21.40;100436.00;;;;5049142;28;20072;-71
2022/05/23 01:46:34;;;;;;;1.38;0.70;;;22.50;46.10;21.40;100424.00;;;;5042880;28;20513;-71
2022/05/23 01:49:20;;;;;;;1.98;0.65;;;22.50;46.20;21.40;100426.00;;;;5047479;28;20040;-71
2022/05/23 01:52:07;;;;;;;1.23;0.82;;;22.50;46.10;21.40;100422.00;;;;5029345;28;20044;-71
2022/05/23 01:54:54;;;;;;;2.13;0.93;;;22.50;46.20;21.40;100427.00;;;;5054803;28;20076;-71
2022/05/23 01:57:40;;;;;;;2.30;0.70;;;22.50;46.10;21.40;100413.00;;;;5054590;28;20044;-71
2022/05/23 02:03:31;;;;;;;2.47;0.65;;;22.50;46.20;21.40;100414.00;;;;5054144;28;20041;-71
2022/05/23 02:06:17;;;;;;;2.30;0.95;;;22.50;46.10;21.40;100423.00;;;;5043368;28;20044;-71
2022/05/23 02:09:04;;;;;;;0.50;0.50;;;22.50;46.20;21.40;100427.00;;;;5051455;28;20045;-71
2022/05/23 02:11:50;;;;;;;0.90;0.70;;;22.50;46.20;21.40;100426.00;;;;5040534;28;20032;-71
2022/05/23 02:14:36;;;;;;;1.27;0.70;;;22.50;46.90;21.40;100428.00;;;;5056541;28;20032;-71
2022/05/23 02:17:23;;;;;;;1.50;0.65;;;22.50;46.30;21.50;100426.00;;;;5043226;28;20030;-70
2022/05/23 02:20:10;;;;;;;1.17;0.70;;;22.50;46.20;21.40;100418.00;;;;5057532;28;20663;-71
2022/05/23 02:22:56;;;;;;;2.47;0.68;;;22.50;46.30;21.40;100419.00;;;;5052054;28;20399;-71
2022/05/23 02:25:42;;;;;;;1.75;0.70;;;22.50;46.30;21.50;100420.00;;;;5044774;28;20045;-71
2022/05/23 02:28:28;;;;;;;1.23;0.63;;;22.50;46.20;21.40;100412.00;;;;5044576;28;20041;-71
2022/05/23 02:31:14;;;;;;;1.65;1.13;;;22.50;46.30;21.50;100407.00;;;;5043294;28;20034;-71
2022/05/23 02:34:01;;;;;;;2.75;0.90;;;22.50;46.30;21.40;100401.00;;;;5047304;28;20047;-71
2022/05/23 02:36:47;;;;;;;2.13;0.80;;;22.50;46.30;21.50;100402.00;;;;5051539;28;20041;-71
2022/05/23 02:39:33;;;;;;;3.38;1.23;;;22.50;46.30;21.50;100396.00;;;;5046363;28;20096;-71
2022/05/23 02:42:19;;;;;;;1.80;0.75;;;22.50;47.10;21.40;100401.00;;;;5040811;28;20041;-71
2022/05/23 02:45:06;;;;;;;1.63;0.90;;;22.50;46.30;21.50;100398.00;;;;5062248;28;20042;-71
2022/05/23 02:47:52;;;;;;;2.13;0.77;;;22.50;46.40;21.50;100403.00;;;;5038269;28;20040;-71
2022/05/23 02:50:38;;;;;;;2.83;0.98;;;22.50;46.40;21.50;100396.00;;;;5045221;28;20037;-71
2022/05/23 02:53:24;;;;;;;2.95;0.90;;;22.50;46.40;21.50;100395.00;;;;5047255;28;20505;-71
2022/05/23 02:56:11;;;;;;;1.60;0.80;;;22.60;46.40;21.50;100383.00;;;;5039591;28;20052;-71
2022/05/23 02:58:57;;;;;;;2.55;0.90;;;22.50;46.40;21.50;100386.00;;;;5059975;28;20033;-71
2022/05/23 03:04:47;;;;;;;3.08;0.80;;;22.50;46.50;21.40;100381.00;;;;5044873;28;20032;-71
2022/05/23 03:07:33;;;;;;;2.80;0.82;;;22.50;46.40;21.40;100379.00;;;;5054808;28;20068;-71
2022/05/23 03:10:20;;;;;;;1.95;0.82;;;22.50;46.50;21.40;100363.00;;;;5040465;28;20116;-71
2022/05/23 03:13:06;;;;;;;1.90;1.00;;;22.50;46.50;21.40;100371.00;;;;5045770;28;20506;-71
2022/05/23 03:15:52;;;;;;;1.60;0.90;;;22.50;46.50;21.40;100357.00;;;;5041466;28;20069;-71
2022/05/23 03:18:38;;;;;;;1.98;0.75;;;22.50;46.50;21.40;100363.00;;;;5049487;28;20041;-72
2022/05/23 03:27:33;;;;;;;2.22;0.80;;;22.60;46.60;21.40;100352.00;;;;5044785;28;20489;-71
2022/05/23 03:30:19;;;;;;;2.08;0.90;;;22.50;46.60;21.40;100337.00;;;;5043673;28;20179;-71
2022/05/23 03:33:07;;;;;;;1.98;1.00;;;22.50;46.60;21.40;100333.00;;;;5038482;28;20034;-71
2022/05/23 03:35:53;;;;;;;3.53;1.00;;;22.50;46.60;21.40;100332.00;;;;5043796;28;20041;-71
2022/05/23 03:38:39;;;;;;;2.83;0.90;;;22.50;46.60;21.40;100321.00;;;;5045081;28;20036;-71
2022/05/23 03:41:25;;;;;;;2.30;1.05;;;22.50;46.70;21.40;100314.00;;;;5039041;28;20045;-71
2022/05/23 03:44:11;;;;;;;1.48;1.02;;;22.50;46.70;21.40;100309.00;;;;5046278;28;20045;-71
2022/05/23 03:46:57;;;;;;;2.80;1.25;;;22.50;46.70;21.40;100316.00;;;;5040520;28;20045;-71
2022/05/23 03:49:43;;;;;;;1.67;0.80;;;22.40;46.70;21.40;100307.00;;;;5047378;28;20044;-71
2022/05/23 03:52:29;;;;;;;1.63;0.90;;;22.50;46.80;21.40;100300.00;;;;5043507;28;20040;-71
2022/05/23 03:55:15;;;;;;;1.48;1.00;;;22.50;46.80;21.40;100291.00;;;;5044396;28;20029;-71
2022/05/23 03:58:02;;;;;;;3.13;0.75;;;22.50;46.80;21.40;100285.00;;;;5039912;28;20071;-71
2022/05/23 04:00:50;;;;;;;1.63;1.00;;;22.50;46.90;21.50;100288.00;;;;5041308;28;20036;-71
2022/05/23 04:03:37;;;;;;;4.00;1.50;;;22.50;46.90;21.40;100274.00;;;;5050936;28;20036;-71
2022/05/23 04:06:23;;;;;;;2.33;1.15;;;22.50;46.90;21.40;100277.00;;;;5050732;28;20047;-71
2022/05/23 04:09:09;;;;;;;2.25;1.10;;;22.50;46.90;21.40;100265.00;;;;5025459;28;20045;-71
2022/05/23 04:11:56;;;;;;;3.63;1.30;;;22.50;46.90;21.40;100272.00;;;;5038644;28;20479;-71
2022/05/23 04:14:42;;;;;;;2.90;1.30;;;22.50;46.90;21.40;100257.00;;;;5040430;28;20280;-71
2022/05/23 04:17:28;;;;;;;2.22;1.00;;;22.40;46.80;21.50;100266.00;;;;5040165;28;20694;-71
2022/05/23 04:20:14;;;;;;;1.25;1.10;;;22.50;47.00;21.50;100271.00;;;;5034451;28;20048;-71
2022/05/23 04:23:00;;;;;;;2.03;1.05;;;22.50;47.00;21.40;100265.00;;;;5038996;28;20088;-71
2022/05/23 04:25:48;;;;;;;2.50;1.33;;;22.50;47.00;21.40;100262.00;;;;5042142;28;20157;-71
2022/05/23 04:28:35;;;;;;;4.50;1.30;;;22.50;47.00;21.40;100253.00;;;;5051740;28;20044;-71
2022/05/23 04:31:21;;;;;;;;;;;22.50;47.00;21.40;100246.00;;;;5041357;28;20032;-71
2022/05/23 04:37:12;;;;;;;2.58;1.13;;;22.50;46.90;21.40;100245.00;;;;5034315;28;20041;-71
2022/05/23 04:39:58;;;;;;;1.63;0.95;;;22.50;47.00;21.40;100241.00;;;;5055824;28;20045;-71
2022/05/23 04:42:44;;;;;;;1.85;1.05;;;22.50;47.00;21.40;100240.00;;;;5039214;28;20364;-71
2022/05/23 04:45:31;;;;;;;1.67;1.10;;;22.50;47.00;21.40;100236.00;;;;5044925;28;20037;-71
2022/05/23 04:51:21;;;;;;;2.67;1.30;;;22.40;47.00;21.40;100227.00;;;;5047238;28;20034;-71
2022/05/23 04:54:07;;;;;;;2.78;1.20;;;22.40;47.10;21.40;100220.00;;;;5055500;28;20040;-71
2022/05/23 04:56:53;;;;;;;2.75;1.30;;;22.40;47.10;21.40;100220.00;;;;5042166;28;20053;-71
2022/05/23 04:59:39;;;;;;;2.83;1.30;;;22.40;47.10;21.40;100218.00;;;;5041996;28;20045;-71
2022/05/23 05:02:25;;;;;;;2.50;1.10;;;22.40;47.10;21.40;100215.00;;;;5043528;28;20422;-71
2022/05/23 05:05:11;;;;;;;2.60;1.23;;;22.40;47.20;21.40;100222.00;;;;5060979;28;20037;-71
2022/05/23 05:07:57;;;;;;;3.97;1.25;;;22.40;47.10;21.40;100217.00;;;;5062875;28;20512;-71
2022/05/23 05:10:45;;;;;;;2.70;1.40;;;22.40;47.20;21.40;100210.00;;;;5055456;28;20095;-71
2022/05/23 05:13:33;;;;;;;2.88;1.40;;;22.40;47.20;21.40;100208.00;;;;5039761;28;20041;-71
2022/05/23 05:16:23;;;;;;;1.95;1.20;;;22.50;47.20;21.40;100206.00;;;;5055549;28;20043;-71
2022/05/23 05:19:09;;;;;;;3.05;1.40;;;22.40;47.20;21.40;100206.00;;;;5050432;28;20500;-71
2022/05/23 05:21:55;;;;;;;3.67;1.20;;;22.40;47.20;21.40;100211.00;;;;5022534;28;20052;-71
2022/05/23 05:24:41;;;;;;;2.67;1.10;;;22.40;47.20;21.40;100207.00;;;;5039084;28;20064;-71
2022/05/23 05:27:29;;;;;;;4.07;1.40;;;22.50;47.30;21.40;100215.00;;;;5073787;28;20041;-71
2022/05/23 05:30:19;;;;;;;;;;;22.40;47.30;21.40;100205.00;;;;5041578;28;20037;-71
2022/05/23 05:33:11;;;;;;;2.30;1.30;;;22.50;47.30;21.40;100199.00;;;;5025231;28;20450;-71
2022/05/23 05:36:04;;;;;;;2.00;1.10;;;22.50;47.20;21.40;100205.00;;;;5042718;28;20458;-71
2022/05/23 05:39:01;;;;;;;2.22;1.08;;;22.40;47.20;21.40;100196.00;;;;5044251;28;20069;-71
2022/05/23 05:42:00;;;;;;;1.88;1.13;;;22.50;47.30;21.40;100198.00;;;;5056322;28;20065;-71
2022/05/23 05:44:52;;;;;;;3.30;1.10;;;22.50;47.30;21.40;100197.00;;;;5044717;28;20037;-71
2022/05/23 05:47:40;;;;;;;3.83;1.30;;;22.50;47.40;21.40;100202.00;;;;5033669;28;20053;-71
2022/05/23 05:50:30;;;;;;;8.20;1.85;;;22.50;47.30;21.40;100189.00;;;;5040428;28;20493;-71
2022/05/23 05:53:30;;;;;;;4.85;1.58;;;22.50;47.30;21.40;100189.00;;;;5044728;28;20107;-71
2022/05/23 05:56:16;;;;;;;7.32;2.17;;;22.50;47.40;21.40;100188.00;;;;5056315;28;20064;-71
2022/05/23 05:59:02;;;;;;;4.80;1.38;;;22.40;47.40;21.50;100185.00;;;;5029275;28;20075;-71
2022/05/23 06:01:48;;;;;;;6.25;2.00;;;22.50;47.40;21.40;100173.00;;;;5068134;28;20037;-71
2022/05/23 06:04:34;;;;;;;8.25;1.73;;;22.50;47.30;21.40;100180.00;;;;5051421;28;20044;-71
2022/05/23 06:13:33;;;;;;;6.03;1.65;;;22.40;47.30;21.40;100154.00;;;;5045534;28;20349;-71
2022/05/23 06:16:19;;;;;;;5.55;1.60;;;22.50;47.40;21.40;100146.00;;;;5042701;28;20064;-71
2022/05/23 06:19:05;;;;;;;4.43;1.65;;;22.50;47.30;21.40;100142.00;;;;5051228;28;20036;-71
2022/05/23 06:21:51;;;;;;;5.82;1.98;;;22.50;47.40;21.40;100140.00;;;;5050543;28;20084;-71
2022/05/23 06:24:37;;;;;;;3.97;1.60;;;22.50;47.40;21.40;100130.00;;;;5055026;28;20171;-71
2022/05/23 06:27:23;;;;;;;3.47;1.52;;;22.50;47.40;21.40;100125.00;;;;5042050;28;20041;-71
2022/05/23 06:30:12;;;;;;;4.97;1.90;;;22.50;47.40;21.40;100124.00;;;;5045531;28;20423;-71
2022/05/23 06:32:58;;;;;;;3.20;1.35;;;22.50;47.50;21.50;100125.00;;;;5039099;28;20041;-71
2022/05/23 06:35:44;;;;;;;3.05;1.42;;;22.60;47.50;21.50;100124.00;;;;5045219;28;20072;-71
2022/05/23 06:38:30;;;;;;;3.83;1.38;;;22.50;47.50;21.50;100115.00;;;;5035840;28;20038;-71
2022/05/23 06:41:16;;;;;;;3.30;1.52;;;22.60;47.50;21.40;100112.00;;;;5040738;28;20044;-71
2022/05/23 06:44:02;;;;;;;3.08;1.40;;;22.50;47.50;21.50;100109.00;;;;5069610;28;20098;-71
2022/05/23 06:46:48;;;;;;;3.40;1.60;;;22.60;47.50;21.50;100100.00;;;;5044633;28;20361;-71
2022/05/23 06:49:34;;;;;;;3.45;1.95;;;22.50;47.50;21.40;100100.00;;;;5044710;28;20113;-70
2022/05/23 06:52:21;;;;;;;5.10;1.45;;;22.60;47.50;21.50;100098.00;;;;5040623;28;20048;-71
2022/05/23 06:55:07;;;;;;;3.50;1.20;;;22.60;47.60;21.50;100099.00;;;;5041048;28;20048;-71
2022/05/23 06:57:53;;;;;;;2.80;1.30;;;22.50;47.50;21.50;100100.00;;;;5043599;28;20075;-71
2022/05/23 07:00:40;;;;;;;2.17;1.50;;;22.60;47.60;21.50;100096.00;;;;5056200;28;20312;-71
2022/05/23 07:03:26;;;;;;;2.58;1.40;;;22.50;47.50;21.50;100093.00;;;;5042352;28;20121;-71
2022/05/23 07:12:23;;;;;;;2.42;1.58;;;22.60;47.70;21.40;100101.00;;;;5052536;28;20040;-71
2022/05/23 07:15:09;;;;;;;;;;;22.60;47.70;21.40;100092.00;;;;5045877;28;20044;-71
2022/05/23 07:17:55;;;;;;;1.75;1.33;;;22.60;47.60;21.40;100100.00;;;;5046070;28;19917;-71
2022/05/23 07:20:41;;;;;;;2.03;1.40;;;22.60;47.60;21.40;100097.00;;;;5045366;28;20040;-71
2022/05/23 07:23:27;;;;;;;2.15;1.17;;;22.60;47.70;21.40;100105.00;;;;5045451;28;20044;-71
2022/05/23 07:26:17;;;;;;;1.95;1.48;;;22.60;47.70;21.50;100095.00;;;;5050273;28;20414;-71
2022/05/23 07:29:04;;;;;;;3.88;1.60;;;22.60;47.70;21.40;100093.00;;;;5056568;28;20454;-71
2022/05/23 07:31:51;;;;;;;1.73;1.23;;;22.60;47.80;21.50;100087.00;;;;5051800;28;20506;-71
2022/05/23 07:34:38;;;;;;;3.58;1.45;;;22.60;47.80;21.50;100084.00;;;;5033404;28;20035;-71
2022/05/23 07:37:24;;;;;;;2.83;1.50;;;22.60;47.80;21.50;100080.00;;;;5044689;28;20068;-71
2022/05/23 07:40:11;;;;;;;2.28;1.45;;;22.60;47.80;21.50;100073.00;;;;5045262;28;20119;-71
2022/05/23 07:42:57;;;;;;;3.83;1.77;;;22.60;47.80;21.50;100070.00;;;;5045697;28;20592;-71
2022/05/23 07:45:43;;;;;;;2.47;1.30;;;22.60;47.80;21.50;100074.00;;;;5041923;28;20033;-71
2022/05/23 07:48:29;;;;;;;3.10;1.60;;;22.60;47.80;21.50;100069.00;;;;5044978;28;20095;-71
2022/05/23 07:51:17;;;;;;;3.47;1.40;;;22.60;47.80;21.50;100055.00;;;;5044251;28;20036;-71
2022/05/23 08:03:18;;;;;;;1.17;1.08;;;22.60;47.80;21.50;100034.00;;;;5050772;28;20099;-71
2022/05/23 08:06:05;;;;;;;4.20;1.50;;;22.60;47.90;21.50;100027.00;;;;5039634;28;20045;-71
2022/05/23 08:08:52;;;;;;;2.13;1.40;;;22.60;47.80;21.50;100018.00;;;;5050112;28;20116;-71
2022/05/23 08:11:44;;;;;;;2.70;1.67;;;22.60;47.90;21.50;100014.00;;;;5031507;28;20037;-71
2022/05/23 08:14:30;;;;;;;2.40;1.40;;;22.60;48.10;21.50;100014.00;;;;5044128;28;20048;-71
2022/05/23 08:17:16;;;;;;;2.65;1.42;;;22.50;47.90;21.50;100007.00;;;;5053871;28;20301;-71
2022/05/23 08:20:05;;;;;;;2.67;1.40;;;22.60;48.00;21.50;100009.00;;;;5046385;28;20414;-71
2022/05/23 08:22:55;;;;;;;3.83;1.60;;;22.60;48.10;21.50;99999.00;;;;5043605;28;20045;-71
2022/05/23 08:25:41;;;;;;;2.20;1.20;;;22.60;48.10;21.50;100004.00;;;;5037730;28;20379;-71
2022/05/23 08:28:28;;;;;;;2.72;1.52;;;22.60;48.10;21.50;99989.00;;;;5033594;28;20122;-71
2022/05/23 08:31:14;;;;;;;1.92;1.20;;;22.60;48.10;21.50;99986.00;;;;5052374;28;20326;-71
2022/05/23 08:34:00;;;;;;;2.13;1.35;;;22.60;48.10;21.50;99989.00;;;;5037121;28;20033;-71
2022/05/23 08:36:46;;;;;;;3.25;1.63;;;22.60;48.00;21.50;99972.00;;;;5044897;28;20055;-71
2022/05/23 08:39:32;;;;;;;1.30;1.20;;;22.60;48.10;21.50;99978.00;;;;5050263;28;20094;-71
2022/05/23 08:42:48;;;;;;;1.63;1.20;;;22.60;48.10;21.50;99985.00;;;;5048728;28;20060;-71
2022/05/23 08:45:39;;;;;;;2.08;1.35;;;22.60;48.10;21.50;99975.00;;;;5048016;28;20143;-71
2022/05/23 08:48:47;;;;;;;2.42;1.40;;;22.60;48.10;21.50;99980.00;;;;5034353;28;20560;-71
2022/05/23 08:51:59;;;;;;;3.78;1.50;;;22.60;48.10;21.50;99975.00;;;;5059397;28;20089;-71
2022/05/23 08:55:24;;;;;;;3.17;1.60;;;22.60;48.10;21.50;99961.00;;;;5064039;28;20387;-71
2022/05/23 08:58:20;;;;;;;1.85;1.23;;;22.60;48.10;21.50;99955.00;;;;5022522;28;20180;-71
2022/05/23 09:01:12;;;;;;;2.00;1.40;;;22.60;48.10;21.50;99948.00;;;;5028490;28;20070;-71
2022/05/23 09:04:16;;;;;;;2.17;1.48;;;22.60;48.10;21.50;99957.00;;;;5047421;28;20060;-71
2022/05/23 09:07:03;;;;;;;2.90;1.67;;;22.60;48.10;21.50;99949.00;;;;5038752;28;20049;-71
2022/05/23 09:09:50;;;;;;;2.97;1.77;;;22.60;48.10;21.50;99949.00;;;;5040470;28;20036;-71
2022/05/23 09:12:36;;;;;;;2.63;1.75;;;22.60;48.10;21.50;99944.00;;;;5046869;28;20047;-71
2022/05/23 09:15:23;;;;;;;1.17;1.08;;;22.60;48.10;21.50;99935.00;;;;5044964;28;20049;-71
2022/05/23 09:18:13;;;;;;;2.50;1.40;;;22.60;48.20;21.50;99922.00;;;;5045118;28;20053;-71
2022/05/23 09:21:00;;;;;;;2.88;1.15;;;22.70;48.30;21.50;99925.00;;;;5031166;28;20041;-72
2022/05/23 09:23:50;;;;;;;2.60;1.50;;;22.60;48.10;21.50;99924.00;;;;5042487;28;20506;-71
2022/05/23 09:26:36;;;;;;;2.72;1.55;;;22.60;48.20;21.50;99913.00;;;;5056641;28;20060;-71
2022/05/23 09:29:22;;;;;;;1.90;1.40;;;22.60;48.10;21.50;99906.00;;;;5051910;28;20037;-71
2022/05/23 09:32:10;;;;;;;3.42;1.90;;;22.60;48.30;21.50;99903.00;;;;5045627;28;20513;-71
2022/05/23 09:35:01;;;;;;;3.45;1.95;;;22.60;48.20;21.50;99896.00;;;;5032916;28;20037;-71
2022/05/23 09:38:25;;;;;;;1.63;1.50;;;22.60;48.30;21.50;99898.00;;;;5044278;28;20051;-71
2022/05/23 09:47:57;;;;;;;2.45;1.58;;;22.60;48.30;21.50;99876.00;;;;5042889;28;20048;-71
2022/05/23 09:51:00;;;;;;;2.33;1.50;;;22.60;48.20;21.50;99862.00;;;;5040570;28;20099;-71
2022/05/23 09:53:52;;;;;;;2.78;1.30;;;22.60;48.30;21.50;99856.00;;;;5056784;28;20040;-71
2022/05/23 09:56:39;;;;;;;2.75;1.40;;;22.60;48.30;21.50;99856.00;;;;5042703;28;20041;-71
2022/05/23 09:59:35;;;;;;;2.00;1.23;;;22.70;48.40;21.50;99842.00;;;;5044448;28;20044;-71
2022/05/23 10:02:31;;;;;;;1.88;1.20;;;22.60;48.40;21.50;99842.00;;;;5030691;28;20382;-71
2022/05/23 10:05:35;;;;;;;3.28;1.60;;;22.60;48.40;21.50;99832.00;;;;5055883;28;20036;-71
2022/05/23 10:08:40;;;;;;;1.90;1.63;;;22.60;48.40;21.50;99833.00;;;;5044647;28;20037;-71
2022/05/23 10:11:34;;;;;;;1.52;1.25;;;22.60;48.30;21.50;99839.00;;;;5029143;28;20034;-71
2022/05/23 10:14:20;;;;;;;2.28;1.60;;;22.60;48.40;21.50;99825.00;;;;5030771;28;20048;-71
2022/05/23 10:17:07;;;;;;;3.30;1.38;;;22.70;48.40;21.50;99819.00;;;;5028538;28;20182;-71
2022/05/23 10:19:54;;;;;;;1.85;1.17;;;22.60;48.40;21.50;99808.00;;;;5042611;28;20056;-71
2022/05/23 10:22:54;;;;;;;2.78;1.30;;;22.60;48.40;21.50;99799.00;;;;5055004;28;20474;-71
2022/05/23 10:26:20;;;;;;;3.55;1.58;;;22.70;49.20;21.50;99801.00;;;;5039981;28;20630;-71
2022/05/23 10:29:19;;;;;;;1.80;1.38;;;22.60;48.40;21.50;99803.00;;;;5057709;28;20033;-71
2022/05/23 10:32:11;;;;;;;2.42;1.42;;;22.70;48.50;21.50;99790.00;;;;5038991;28;20049;-71
2022/05/23 10:35:08;;;;;;;2.67;1.80;;;22.70;48.60;21.50;99787.00;;;;5036601;28;20038;-71
2022/05/23 10:42:07;;;;;;;3.38;1.60;;;22.70;48.50;21.50;99790.00;;;;5030808;28;20049;-71
2022/05/23 10:44:38;;;;;;;2.85;1.63;;;22.70;48.50;21.50;99775.00;;;;5048882;28;20394;-71
2022/05/23 10:47:36;;;;;;;;;;;22.70;48.50;21.50;99787.00;;;;5039096;28;20043;-71
2022/05/23 10:50:31;;;;;;;1.40;1.30;;;22.70;48.40;21.50;99784.00;;;;5036522;28;19916;-71
2022/05/23 10:53:28;;;;;;;4.10;1.63;;;22.70;48.40;21.50;99780.00;;;;5045082;28;20047;-71
2022/05/23 10:56:45;;;;;;;2.25;1.50;;;22.70;49.30;21.50;99777.00;;;;5050734;28;20176;-72
2022/05/23 10:59:32;;;;;;;2.83;1.42;;;22.70;48.60;21.50;99778.00;;;;5037439;28;20457;-71
2022/05/23 11:02:32;;;;;;;2.92;1.75;;;22.70;48.60;21.50;99766.00;;;;5050357;28;20400;-71
2022/05/23 11:05:36;;;;;;;3.83;1.42;;;22.70;48.60;21.60;99765.00;;;;5045942;28;20048;-71
2022/05/23 11:08:49;;;;;;;3.38;1.75;;;22.70;48.50;21.60;99755.00;;;;5043781;28;20045;-71
2022/05/23 11:12:14;;;;;;;2.90;1.40;;;22.70;48.60;21.60;99755.00;;;;5038348;28;20040;-71
2022/05/23 11:15:25;;;;;;;2.22;1.38;;;22.70;48.50;21.60;99741.00;;;;5044127;28;20458;-71
2022/05/23 11:18:20;;;;;;;2.45;1.50;;;22.70;48.60;21.60;99736.00;;;;5046524;28;20585;-71
2022/05/23 11:21:13;;;;;;;2.72;1.58;;;22.80;48.60;21.60;99734.00;;;;5042640;28;20040;-71
2022/05/23 11:24:24;;;;;;;2.20;1.50;;;22.70;48.50;21.60;99725.00;;;;5034368;28;20072;-72
2022/05/23 11:34:22;;;;;;;3.28;1.85;;;22.80;48.60;21.60;99705.00;;;;5039537;28;20067;-71
2022/05/23 11:40:26;;;;;;;2.45;1.75;;;22.80;48.70;21.60;99704.00;;;;5040347;28;20041;-71
2022/05/23 11:43:16;;;;;;;2.72;1.50;;;22.80;48.70;21.60;99703.00;;;;5044469;28;20116;-71
2022/05/23 11:46:06;;;;;;;2.63;1.45;;;22.70;48.70;21.60;99683.00;;;;5053949;28;20499;-71
2022/05/23 11:48:58;;;;;;;2.65;1.75;;;22.80;48.60;21.60;99689.00;;;;5039035;28;20084;-71
2022/05/23 11:52:04;;;;;;;2.33;1.73;;;22.80;48.70;21.60;99689.00;;;;5036035;28;20080;-71
2022/05/23 11:54:51;;;;;;;4.28;1.58;;;22.80;48.80;21.60;99679.00;;;;5041530;28;20489;-71
2022/05/23 11:57:39;;;;;;;4.47;1.98;;;22.80;48.90;21.60;99678.00;;;;5052945;28;20063;-72
2022/05/23 12:00:37;;;;;;;2.47;1.75;;;22.80;49.00;21.60;99663.00;;;;5044003;28;20040;-72
2022/05/23 12:03:23;;;;;;;4.43;2.10;;;22.80;49.10;21.60;99658.00;;;;5056446;28;20128;-71
2022/05/23 12:06:25;;;;;;;1.83;1.50;;;22.80;49.10;21.60;99646.00;;;;5046969;28;20037;-71
2022/05/23 12:09:13;;;;;;;2.92;1.45;;;22.80;49.20;21.60;99647.00;;;;5051886;28;20052;-71
2022/05/23 12:12:24;;;;;;;2.25;1.77;;;22.80;49.10;21.70;99635.00;;;;5042969;28;20057;-71
2022/05/23 12:15:11;;;;;;;2.40;1.50;;;22.80;49.20;21.70;99632.00;;;;5043269;28;20483;-71
2022/05/23 12:17:58;;;;;;;7.25;1.58;;;22.90;49.20;21.70;99636.00;;;;5049232;28;20158;-71
2022/05/23 12:20:45;;;;;;;1.27;1.17;;;22.90;49.30;21.70;99624.00;;;;5043503;28;20036;-71
2022/05/23 12:23:42;;;;;;;2.83;1.50;;;22.90;49.40;21.70;99623.00;;;;5054110;28;20302;-71
2022/05/23 12:26:50;;;;;;;1.90;1.58;;;22.90;49.30;21.70;99629.00;;;;5020025;28;20942;-71
2022/05/23 12:29:38;;;;;;;1.58;1.48;;;22.90;49.20;21.70;99614.00;;;;5034487;28;20127;-71
2022/05/23 12:32:28;;;;;;;2.80;1.67;;;22.90;49.30;21.70;99618.00;;;;5034293;28;20602;-71
2022/05/23 12:35:15;;;;;;;3.75;1.80;;;23.00;49.40;21.70;99614.00;;;;5030964;28;20033;-71
2022/05/23 12:38:18;;;;;;;2.00;1.70;;;23.00;49.40;21.70;99605.00;;;;5033714;28;20041;-71
2022/05/23 12:41:31;;;;;;;1.77;1.50;;;22.90;49.40;21.70;99592.00;;;;5029649;28;20094;-71
2022/05/23 12:44:33;;;;;;;5.85;1.77;;;22.90;49.40;21.70;99585.00;;;;5043398;28;20037;-71
2022/05/23 12:47:44;;;;;;;2.83;1.58;;;23.00;49.30;21.70;99589.00;;;;5034363;28;20041;-71
2022/05/23 12:50:51;;;;;;;1.50;1.25;;;23.00;49.20;21.70;99579.00;;;;5035648;28;20040;-71
2022/05/23 12:54:13;;;;;;;1.95;1.63;;;23.00;49.20;21.70;99569.00;;;;5035871;28;20569;-71
2022/05/23 12:57:47;;;;;;;2.22;1.30;;;23.00;49.10;21.70;99566.00;;;;5035708;28;20458;-71
2022/05/23 13:00:37;;;;;;;1.88;1.77;;;23.00;49.10;21.70;99562.00;;;;5029463;28;20576;-71
2022/05/23 13:03:33;;;;;;;1.88;1.30;;;23.00;49.10;21.80;99542.00;;;;5042718;28;20501;-71
2022/05/23 13:06:37;;;;;;;3.35;1.77;;;23.00;49.10;21.80;99550.00;;;;5054801;28;20124;-71
2022/05/23 13:09:36;;;;;;;2.85;1.90;;;23.00;49.20;21.80;99543.00;;;;5044544;28;20445;-71
2022/05/23 13:12:41;;;;;;;3.13;1.30;;;23.00;49.10;21.80;99536.00;;;;5037593;28;20068;-71
2022/05/23 13:15:29;;;;;;;2.03;1.30;;;23.00;49.10;21.80;99538.00;;;;5050421;28;20080;-71
2022/05/23 13:27:44;;;;;;;2.60;1.42;;;23.00;49.30;21.80;99513.00;;;;5059527;28;20049;-71
2022/05/23 13:30:34;;;;;;;2.53;1.35;;;23.00;49.30;21.80;99512.00;;;;5048467;28;20044;-71
2022/05/23 13:33:28;;;;;;;1.60;1.50;;;23.00;49.40;21.80;99507.00;;;;5047451;28;20068;-71
2022/05/23 13:36:14;;;;;;;1.58;1.27;;;23.00;49.50;21.80;99498.00;;;;5049513;28;20044;-71
2022/05/23 13:39:05;;;;;;;1.75;1.42;;;23.00;49.40;21.80;99497.00;;;;5034824;28;20037;-71
2022/05/23 13:41:51;;;;;;;1.73;1.60;;;23.10;49.40;21.80;99488.00;;;;5027962;28;20077;-71
2022/05/23 13:44:37;;;;;;;1.75;1.17;;;23.00;49.30;21.80;99490.00;;;;5044758;28;20044;-71
2022/05/23 13:47:29;;;;;;;1.92;1.38;;;23.00;49.30;21.80;99470.00;;;;5045669;28;20104;-71
2022/05/23 13:50:22;;;;;;;1.45;1.35;;;23.00;49.40;21.80;99468.00;;;;5057019;28;20103;-71